Time;durP1;ratioP1;P1;durP2;ratioP2;P2;SDS_P1;SDS_P2;PMS_P1;PMS_P2;Temp;Humidity;BMP_temperature;BMP_pressure;BME280_temperature;BME280_humidity;BME280_pressure;Samples;Min_cycle;Max_cycle;Signal;HPM_P1;HPM_P2
2023/07/15 00:00:34;;;;;;;2.13;1.15;;;;;;;;;;20827342;28;20227;-67
2023/07/15 00:10:38;;;;;;;1.50;0.73;;;25.40;94.90;;;;;;20882791;28;20628;-66
2023/07/15 00:20:40;;;;;;;2.72;1.00;;;;;;;;;;20868324;28;20250;-66
2023/07/15 00:30:41;;;;;;;1.48;0.73;;;;;;;;;;20831718;28;20763;-67
2023/07/15 00:40:46;;;;;;;3.80;0.90;;;;;;;;;;20874858;28;20246;-66
2023/07/15 00:50:48;;;;;;;2.42;0.80;;;;;;;;;;20857736;28;20266;-66
2023/07/15 01:00:50;;;;;;;1.42;0.82;;;;;;;;;;20856165;28;20291;-66
2023/07/15 01:10:52;;;;;;;2.13;0.63;;;;;;;;;;20859091;28;20211;-67
2023/07/15 01:20:58;;;;;;;1.38;1.00;;;;;;;;;;20702260;28;20237;-67
2023/07/15 01:30:59;;;;;;;1.15;0.73;;;;;;;;;;20701858;28;20265;-67
2023/07/15 01:41:02;;;;;;;0.85;0.55;;;;;;;;;;20737697;28;20248;-66
2023/07/15 01:51:04;;;;;;;2.03;1.05;;;;;;;;;;20786658;28;20258;-67
2023/07/15 02:01:06;;;;;;;1.73;0.88;;;;;;;;;;20769552;28;20236;-66
2023/07/15 02:11:08;;;;;;;2.08;0.93;;;;;;;;;;20806422;28;20227;-66
2023/07/15 02:21:11;;;;;;;1.48;0.90;;;;;;;;;;20784938;28;20234;-66
2023/07/15 02:31:13;;;;;;;1.20;0.80;;;;;;;;;;20784523;28;20277;-67
2023/07/15 02:41:14;;;;;;;1.40;0.80;;;;;;;;;;20767712;28;20230;-67
2023/07/15 02:51:19;;;;;;;2.03;0.82;;;;;;;;;;20767293;28;20280;-66
2023/07/15 03:01:21;;;;;;;0.75;0.65;;;;;;;;;;20767342;28;20289;-66
2023/07/15 03:11:23;;;;;;;1.15;0.65;;;;;;;;;;20854193;28;20251;-67
2023/07/15 03:21:25;;;;;;;1.42;0.93;;;;;;;;;;20933429;28;20311;-67
2023/07/15 03:31:28;;;;;;;0.60;0.50;;;;;;;;;;20903924;28;20264;-67
2023/07/15 03:41:33;;;;;;;1.20;0.70;;;23.80;99.90;;;;;;20950841;28;20324;-69
2023/07/15 03:51:35;;;;;;;1.73;0.80;;;;;;;;;;20929012;28;20545;-67
2023/07/15 04:01:38;;;;;;;1.92;1.10;;;;;;;;;;20931162;28;20289;-67
2023/07/15 04:11:41;;;;;;;1.48;1.00;;;;;;;;;;20964760;28;20270;-67
2023/07/15 04:21:44;;;;;;;1.30;0.90;;;23.30;99.90;;;;;;20929460;28;20231;-67
2023/07/15 04:31:54;;;;;;;1.30;0.93;;;;;;;;;;20931513;28;20315;-67
2023/07/15 04:42:04;;;;;;;1.85;0.90;;;;;;;;;;20925003;28;20275;-66
2023/07/15 04:52:06;;;;;;;1.38;0.70;;;;;;;;;;20854743;28;20210;-66
2023/07/15 05:02:08;;;;;;;0.85;0.50;;;;;;;;;;20855785;28;20277;-66
2023/07/15 05:12:10;;;;;;;1.20;0.77;;;;;;;;;;20947327;28;20718;-67
2023/07/15 05:22:12;;;;;;;3.45;0.73;;;;;;;;;;20935933;28;20275;-66
2023/07/15 05:32:14;;;;;;;1.20;0.68;;;;;;;;;;20935539;28;20236;-66
2023/07/15 05:42:16;;;;;;;1.00;0.70;;;;;;;;;;20935482;28;20216;-66
2023/07/15 05:52:18;;;;;;;2.55;1.23;;;;;;;;;;20934997;28;20258;-66
2023/07/15 06:02:19;;;;;;;1.58;0.90;;;;;;;;;;20934889;28;20245;-66
2023/07/15 06:12:21;;;;;;;1.67;0.80;;;;;;;;;;20890519;23;20240;-81
2023/07/15 06:22:23;;;;;;;6.00;1.33;;;;;;;;;;20920274;28;20593;-76
2023/07/15 06:32:25;;;;;;;0.98;0.60;;;;;;;;;;20896406;28;20268;-80
2023/07/15 06:42:27;;;;;;;3.78;1.40;;;;;;;;;;20882559;28;20214;-81
2023/07/15 06:52:29;;;;;;;1.38;0.70;;;;;;;;;;20901743;28;20228;-82
2023/07/15 07:02:31;;;;;;;3.35;0.80;;;;;;;;;;20907111;28;20215;-81
2023/07/15 07:12:34;;;;;;;1.38;0.80;;;;;;;;;;20940993;28;20627;-84
2023/07/15 07:22:36;;;;;;;1.17;0.80;;;;;;;;;;20926391;28;20295;-83
2023/07/15 07:32:37;;;;;;;3.42;0.90;;;;;;;;;;20919862;28;20227;-80
2023/07/15 07:42:39;;;;;;;1.98;0.90;;;;;;;;;;20880525;28;20300;-82
2023/07/15 07:52:41;;;;;;;2.90;1.30;;;;;;;;;;20868477;28;20278;-84
2023/07/15 08:02:42;;;;;;;1.15;0.80;;;;;;;;;;20889197;28;20257;-84
2023/07/15 08:12:47;;;;;;;1.20;0.63;;;;;;;;;;20903004;28;20232;-83
2023/07/15 08:22:48;;;;;;;1.20;0.80;;;;;;;;;;20870010;28;20244;-84
2023/07/15 08:32:50;;;;;;;1.42;0.88;;;;;;;;;;20870252;28;20236;-84
2023/07/15 08:55:04;;;;;;;;;;;;;;;;;;;;;
2023/07/15 09:17:29;;;;;;;1.38;0.65;;;;;;;;;;20938453;28;20225;-84
2023/07/15 09:27:31;;;;;;;6.57;1.10;;;;;;;;;;20867628;28;20236;-85
2023/07/15 09:37:35;;;;;;;1.23;0.75;;;;;;;;;;20895845;28;20240;-83
2023/07/15 09:47:37;;;;;;;3.25;1.38;;;;;;;;;;20915479;28;20221;-84
2023/07/15 09:57:39;;;;;;;1.10;0.70;;;;;;;;;;20898039;28;20231;-84
2023/07/15 10:07:41;;;;;;;3.72;0.75;;;;;;;;;;20896416;28;20590;-85
2023/07/15 10:17:46;;;;;;;2.35;0.90;;;;;;;;;;20909913;28;20233;-84
2023/07/15 10:28:09;;;;;;;1.73;0.80;;;;;;;;;;20902889;28;20621;-83
2023/07/15 10:38:30;;;;;;;5.72;1.15;;;;;;;;;;20859543;28;20228;-84
2023/07/15 10:48:32;;;;;;;2.90;0.77;;;;;;;;;;20875509;28;20281;-84
2023/07/15 10:58:35;;;;;;;4.03;0.70;;;;;;;;;;20870594;28;20237;-83
2023/07/15 11:08:38;;;;;;;3.70;0.90;;;;;;;;;;20888651;28;20217;-83
2023/07/15 11:18:41;;;;;;;2.67;1.08;;;;;;;;;;20861212;28;20249;-84
2023/07/15 11:28:50;;;;;;;1.55;0.70;;;26.80;99.90;;;;;;20858707;28;20191;-83
2023/07/15 11:38:52;;;;;;;1.35;0.85;;;;;;;;;;20849080;28;20274;-83
2023/07/15 11:48:58;;;;;;;1.73;1.00;;;;;;;;;;20859317;28;20259;-80
2023/07/15 11:59:00;;;;;;;1.05;0.70;;;;;;;;;;20905613;28;20259;-82
2023/07/15 12:09:03;;;;;;;1.85;0.80;;;27.70;99.90;;;;;;20872199;28;20232;-82
2023/07/15 12:19:06;;;;;;;1.58;0.80;;;;;;;;;;20908695;28;20286;-83
2023/07/15 12:29:09;;;;;;;1.30;0.80;;;;;;;;;;20923852;28;20291;-83
2023/07/15 12:39:11;;;;;;;2.42;1.25;;;;;;;;;;20911451;28;20301;-84
2023/07/15 12:49:13;;;;;;;1.85;0.75;;;;;;;;;;20940387;28;20610;-83
2023/07/15 12:59:14;;;;;;;1.40;0.88;;;;;;;;;;20942674;28;20286;-83
2023/07/15 13:09:17;;;;;;;1.42;0.80;;;;;;;;;;20913638;28;20283;-83
2023/07/15 13:19:19;;;;;;;3.53;0.75;;;;;;;;;;20900904;28;20719;-83
2023/07/15 13:29:20;;;;;;;5.55;1.10;;;;;;;;;;20911789;28;20621;-82
2023/07/15 13:39:45;;;;;;;3.60;1.48;;;29.50;99.90;;;;;;20933627;28;20237;-81
2023/07/15 13:49:47;;;;;;;3.47;1.27;;;;;;;;;;20902954;28;20867;-82
2023/07/15 13:59:49;;;;;;;1.80;0.85;;;;;;;;;;20905586;28;20262;-81
2023/07/15 14:09:51;;;;;;;1.30;0.68;;;;;;;;;;20967435;28;20236;-82
2023/07/15 14:19:52;;;;;;;1.98;0.85;;;;;;;;;;20920524;28;20313;-82
2023/07/15 14:29:54;;;;;;;1.38;0.80;;;;;;;;;;20883861;28;20289;-83
2023/07/15 14:39:56;;;;;;;1.27;0.63;;;;;;;;;;20932008;28;20737;-83
2023/07/15 14:49:58;;;;;;;0.98;0.57;;;;;;;;;;20916618;28;20253;-81
2023/07/15 15:00:00;;;;;;;0.93;0.55;;;;;;;;;;20933216;28;20240;-82
2023/07/15 15:10:02;;;;;;;1.35;0.70;;;;;;;;;;20916512;28;20302;-83
2023/07/15 15:20:05;;;;;;;1.45;0.60;;;;;;;;;;20940778;28;20236;-82
2023/07/15 15:30:07;;;;;;;1.60;0.75;;;;;;;;;;20933596;28;20231;-80
2023/07/15 15:40:09;;;;;;;1.05;0.70;;;;;;;;;;20936383;28;20593;-81
2023/07/15 15:50:10;;;;;;;1.48;0.77;;;;;;;;;;20912657;28;20224;-81
2023/07/15 16:00:17;;;;;;;1.27;0.60;;;;;;;;;;20928625;28;20240;-81
2023/07/15 16:10:19;;;;;;;0.85;0.73;;;;;;;;;;20995311;28;20295;-82
2023/07/15 16:20:21;;;;;;;1.38;0.90;;;;;;;;;;20947010;28;20236;-81
2023/07/15 16:30:23;;;;;;;1.30;0.80;;;;;;;;;;20896158;28;20269;-83
2023/07/15 16:40:25;;;;;;;1.08;0.60;;;;;;;;;;20959211;28;20645;-83
2023/07/15 16:50:27;;;;;;;2.28;0.90;;;;;;;;;;20871484;28;20733;-84
2023/07/15 17:00:28;;;;;;;1.80;0.70;;;;;;;;;;20928166;28;20244;-82
2023/07/15 17:10:30;;;;;;;3.30;0.50;;;;;;;;;;20871447;28;20689;-84
2023/07/15 17:20:32;;;;;;;1.48;0.50;;;;;;;;;;20921411;28;20286;-82
2023/07/15 17:30:36;;;;;;;1.30;0.70;;;;;;;;;;20893163;28;20227;-84
2023/07/15 17:40:39;;;;;;;0.85;0.52;;;;;;;;;;20916104;28;20793;-85
2023/07/15 17:50:42;;;;;;;0.63;0.32;;;;;;;;;;20910923;28;20282;-84
2023/07/15 18:00:44;;;;;;;1.33;0.50;;;;;;;;;;20943916;28;20225;-82
2023/07/15 18:10:45;;;;;;;0.55;0.40;;;;;;;;;;20891683;28;20220;-83
2023/07/15 18:20:47;;;;;;;1.05;0.60;;;;;;;;;;20886965;28;20249;-82
2023/07/15 18:30:49;;;;;;;1.50;0.75;;;;;;;;;;20878393;28;20558;-84
2023/07/15 18:40:51;;;;;;;0.98;0.60;;;;;;;;;;20922646;28;20228;-83
2023/07/15 18:50:53;;;;;;;0.93;0.50;;;;;;;;;;20911819;28;20278;-82
2023/07/15 19:00:54;;;;;;;1.00;0.50;;;;;;;;;;20900805;28;20755;-81
2023/07/15 19:10:57;;;;;;;0.47;0.38;;;;;;;;;;20919816;28;20240;-84
2023/07/15 19:21:00;;;;;;;1.65;0.50;;;;;;;;;;20928073;28;20243;-84
2023/07/15 19:31:02;;;;;;;0.63;0.43;;;;;;;;;;20923236;28;20223;-85
2023/07/15 19:41:04;;;;;;;0.93;0.55;;;;;;;;;;20907316;28;20245;-80
2023/07/15 19:51:06;;;;;;;0.60;0.40;;;;;;;;;;20929476;28;20273;-82
2023/07/15 20:01:07;;;;;;;1.00;0.50;;;;;;;;;;20908940;28;20794;-82
2023/07/15 20:11:09;;;;;;;2.67;0.63;;;;;;;;;;20885894;28;20302;-81
2023/07/15 20:21:11;;;;;;;1.00;0.63;;;;;;;;;;20896483;28;20228;-81
2023/07/15 20:31:13;;;;;;;2.47;0.40;;;;;;;;;;20874226;28;20219;-79
2023/07/15 20:41:16;;;;;;;0.73;0.40;;;;;;;;;;20883079;28;20267;-80
2023/07/15 20:51:18;;;;;;;0.68;0.40;;;;;;;;;;20878495;28;20268;-84
2023/07/15 21:01:20;;;;;;;0.63;0.40;;;;;;;;;;20898486;28;20272;-84
2023/07/15 21:11:22;;;;;;;0.45;0.40;;;;;;;;;;20872382;28;20293;-83
2023/07/15 21:21:23;;;;;;;0.73;0.50;;;;;;;;;;20863989;28;20271;-82
2023/07/15 21:31:25;;;;;;;1.70;0.57;;;;;;;;;;20900240;28;20258;-82
2023/07/15 21:41:27;;;;;;;1.00;0.70;;;;;;;;;;20947191;28;20236;-82
2023/07/15 21:51:29;;;;;;;0.90;0.50;;;;;;;;;;20833653;28;20572;-83
2023/07/15 22:01:30;;;;;;;0.98;0.50;;;;;;;;;;20849793;28;20240;-81
2023/07/15 22:11:32;;;;;;;1.17;0.57;;;;;;;;;;20842481;28;20313;-82
2023/07/15 22:21:34;;;;;;;0.55;0.50;;;;;;;;;;20913920;28;20243;-81
2023/07/15 22:31:36;;;;;;;0.70;0.50;;;;;;;;;;20900422;28;20225;-81
2023/07/15 22:41:38;;;;;;;1.50;0.50;;;;;;;;;;20936614;28;20237;-81
2023/07/15 22:51:40;;;;;;;0.63;0.50;;;;;;;;;;20899310;28;20232;-82
2023/07/15 23:01:41;;;;;;;0.80;0.60;;;;;;;;;;20905909;28;20240;-83
2023/07/15 23:11:43;;;;;;;1.23;0.50;;;;;;;;;;20870583;28;20309;-80
2023/07/15 23:21:45;;;;;;;1.85;0.85;;;;;;;;;;20861012;28;20314;-80
2023/07/15 23:31:46;;;;;;;0.70;0.50;;;;;;;;;;20845567;28;20717;-81
2023/07/15 23:41:48;;;;;;;0.50;0.40;;;;;;;;;;20869159;28;20288;-81
2023/07/15 23:51:49;;;;;;;0.82;0.70;;;;;;;;;;20849901;28;20287;-81
